Flight Briefing for CPX795

Departure Arrival
Miami International Airport (KMIA)
Click to view FAA NOTAMS
Guarulhos International Airport (SBGR)
Click to view FAA NOTAMS
Departure Time Arrival Time
N/A N/A
Aircraft Distance
B747-400BCF 3554nm
Departure METAR Arrival METAR
KMIA 221053Z 33009G15KT 10SM CLR 15/12 A3005 RMK AO2 SLP176 T01500117 SBGR 221100Z 10005KT 9999 BKN017 18/17 Q1019
Suggested Route
SKIPS2 SKIPS Y398 JOSES UL304 ETBOD UL304 POVLA UL304 ARVUM UL304 EGONI UL795 ETAXI UZ38 MOXEP MOXE1A


View recent IFR Routes data
Notes



Charts and Procedures

Charts for KMIA
No chart available
Charts for SBGR
No chart available

Windy.com Weather Map